Eslamshahr, Iran
Current Conditions -  °F | °C
As of 9:00 PM on Saturday 25 Oct 2014 (Local Time) from OIIE Reporting Station
Clear Clear  
Wind Chill: 63°   Ceiling: Unl
Heat Index: 63°   Visibility: 6mi
Dew Point: 27°   Wind: 9mph
Humidity: 26%   Direction: 310°NW
Pressure: 29.94"   Gusts: NA
Location:  35.54°N, 51.2°E
Report Text: OIIE 251700Z 31008KT CAVOK 17/M03 Q1014
Loading
Personal Weather Stations






























Interactive Weather Map
Tropical Storm Tracking
New forecast layout! Learn more

10-Day Weather Forecast

Advertisements
Track Severe Weather on mobile